createdAt,value
2023-05-17T00:01:49.892Z,6.20
2023-05-17T00:04:19.306Z,7.05
2023-05-17T00:06:47.228Z,11.07
2023-05-17T00:09:15.111Z,12.65
2023-05-17T00:11:43.012Z,8.48
2023-05-17T00:14:11.673Z,9.77
2023-05-17T00:16:39.631Z,8.85
2023-05-17T00:19:09.405Z,8.82
2023-05-17T00:21:38.823Z,13.18
2023-05-17T00:24:07.436Z,6.72
2023-05-17T00:26:35.331Z,7.30
2023-05-17T00:29:03.609Z,11.93
2023-05-17T00:31:31.506Z,6.80
2023-05-17T00:33:59.522Z,7.60
2023-05-17T00:36:27.370Z,8.75
2023-05-17T00:38:56.679Z,11.90
2023-05-17T00:41:24.799Z,12.10
2023-05-17T00:43:53.015Z,9.88
2023-05-17T00:46:20.927Z,11.38
2023-05-17T00:48:49.234Z,10.40
2023-05-17T00:51:17.682Z,9.43
2023-05-17T00:53:45.702Z,10.18
2023-05-17T00:56:15.184Z,10.00
2023-05-17T00:58:43.600Z,10.52
2023-05-17T01:01:11.465Z,4.75
2023-05-17T01:03:39.736Z,9.65
2023-05-17T01:06:08.161Z,10.25
2023-05-17T01:08:36.076Z,9.10
2023-05-17T01:11:12.112Z,14.13
2023-05-17T01:13:43.825Z,10.98
2023-05-17T01:16:17.424Z,7.20
2023-05-17T01:18:49.003Z,6.75
2023-05-17T01:21:32.370Z,9.10
2023-05-17T01:24:17.109Z,9.35
2023-05-17T01:26:48.469Z,9.35
2023-05-17T01:29:17.776Z,8.32
2023-05-17T01:31:46.069Z,7.53
2023-05-17T01:34:14.125Z,10.27
2023-05-17T01:36:43.181Z,7.85
2023-05-17T01:39:11.148Z,9.40
2023-05-17T01:41:42.283Z,10.73
2023-05-17T01:44:16.528Z,9.85
2023-05-17T01:46:44.729Z,16.02
2023-05-17T01:49:17.614Z,8.98
2023-05-17T01:51:48.711Z,15.32
2023-05-17T01:54:21.927Z,9.70
2023-05-17T01:56:53.717Z,12.60
2023-05-17T01:59:25.362Z,10.00
2023-05-17T02:01:54.640Z,13.50
2023-05-17T02:04:22.781Z,11.35
2023-05-17T02:06:50.706Z,12.00
2023-05-17T02:09:18.619Z,9.73
2023-05-17T02:11:46.518Z,10.90
2023-05-17T02:14:14.425Z,11.35
2023-05-17T02:16:44.858Z,9.15
2023-05-17T02:19:13.250Z,8.80
2023-05-17T02:21:41.415Z,17.58
2023-05-17T02:24:09.326Z,12.70
2023-05-17T02:26:37.398Z,10.82
2023-05-17T02:29:05.434Z,12.52
2023-05-17T02:31:33.332Z,14.55
2023-05-17T02:34:02.596Z,13.85
2023-05-17T02:36:30.676Z,14.93
2023-05-17T02:38:58.566Z,17.98
2023-05-17T02:41:26.462Z,12.93
2023-05-17T02:43:54.504Z,11.80
2023-05-17T02:46:22.582Z,9.57
2023-05-17T02:48:50.602Z,12.48
2023-05-17T02:51:19.851Z,13.38
2023-05-17T02:53:47.800Z,9.88
2023-05-17T02:56:15.677Z,10.13
2023-05-17T02:58:43.665Z,14.07
2023-05-17T03:01:11.550Z,9.07
2023-05-17T03:03:39.714Z,7.75
2023-05-17T03:06:07.943Z,9.45
2023-05-17T03:08:37.211Z,9.85
2023-05-17T03:11:05.231Z,9.95
2023-05-17T03:13:33.186Z,12.70
2023-05-17T03:16:01.131Z,8.35
2023-05-17T03:18:29.156Z,9.10
2023-05-17T03:20:57.088Z,12.60
2023-05-17T03:23:25.110Z,8.82
2023-05-17T03:25:54.352Z,11.48
2023-05-17T03:28:22.249Z,12.00
2023-05-17T03:30:50.271Z,9.38
2023-05-17T03:33:18.276Z,15.38
2023-05-17T03:35:46.929Z,14.02
2023-05-17T03:38:14.864Z,11.15
2023-05-17T03:40:42.826Z,14.93
2023-05-17T03:43:12.074Z,11.15
2023-05-17T03:45:39.948Z,14.85
2023-05-17T03:48:07.930Z,11.02
2023-05-17T03:50:35.881Z,9.07
2023-05-17T03:53:03.956Z,9.23
2023-05-17T03:55:31.968Z,9.00
2023-05-17T03:57:59.896Z,9.73
2023-05-17T04:00:29.280Z,8.15
2023-05-17T04:02:57.303Z,12.30
2023-05-17T04:05:25.374Z,9.85
2023-05-17T04:07:53.354Z,11.45
2023-05-17T04:10:21.260Z,9.23
2023-05-17T04:12:49.904Z,12.40
2023-05-17T04:15:17.843Z,10.32
2023-05-17T04:17:47.263Z,12.32
2023-05-17T04:20:15.391Z,9.27
2023-05-17T04:22:43.459Z,10.65
2023-05-17T04:25:11.510Z,12.65
2023-05-17T04:27:39.977Z,12.27
2023-05-17T04:30:09.162Z,16.63
2023-05-17T04:32:37.117Z,14.18
2023-05-17T04:35:07.329Z,11.27
2023-05-17T04:37:35.323Z,11.15
2023-05-17T04:40:03.857Z,10.57
2023-05-17T04:42:31.888Z,14.27
2023-05-17T04:45:00.027Z,16.75
2023-05-17T04:47:28.105Z,13.70
2023-05-17T04:49:56.249Z,18.30
2023-05-17T04:52:25.527Z,12.15
2023-05-17T04:54:53.442Z,15.27
2023-05-17T04:57:21.683Z,17.65
2023-05-17T04:59:49.579Z,16.45
2023-05-17T05:02:17.500Z,13.85
2023-05-17T05:04:45.488Z,17.52
2023-05-17T05:07:13.508Z,16.45
2023-05-17T05:09:42.769Z,13.05
2023-05-17T05:12:11.428Z,12.75
2023-05-17T05:14:39.339Z,15.70
2023-05-17T05:17:07.230Z,16.80
2023-05-17T05:19:35.258Z,16.60
2023-05-17T05:22:03.231Z,12.23
2023-05-17T05:24:31.104Z,12.57
2023-05-17T05:27:00.414Z,12.80
2023-05-17T05:29:28.289Z,16.88
2023-05-17T05:31:56.168Z,16.83
2023-05-17T05:34:24.106Z,17.98
2023-05-17T05:36:52.702Z,15.52
2023-05-17T05:39:20.698Z,17.13
2023-05-17T05:41:48.670Z,15.35
2023-05-17T05:44:17.926Z,15.48
2023-05-17T05:46:45.986Z,15.65
2023-05-17T05:49:13.885Z,15.57
2023-05-17T05:51:41.895Z,15.20
2023-05-17T05:54:09.972Z,16.23
2023-05-17T05:56:40.952Z,17.55
2023-05-17T05:59:08.858Z,17.65
2023-05-17T06:01:38.164Z,18.45
2023-05-17T06:04:06.501Z,13.35
2023-05-17T06:06:34.486Z,15.38
2023-05-17T06:09:02.634Z,16.80
2023-05-17T06:11:30.538Z,17.35
2023-05-17T06:13:58.558Z,16.88
2023-05-17T06:16:26.457Z,14.32
2023-05-17T06:18:56.261Z,17.67
2023-05-17T06:21:24.246Z,15.20
2023-05-17T06:23:52.131Z,15.23
2023-05-17T06:26:20.029Z,16.20
2023-05-17T06:28:48.047Z,16.30
2023-05-17T06:31:16.966Z,14.68
2023-05-17T06:33:48.603Z,14.25
2023-05-17T06:36:17.917Z,12.02
2023-05-17T06:38:45.818Z,13.10
2023-05-17T06:41:13.799Z,10.05
2023-05-17T06:43:41.679Z,12.85
2023-05-17T06:46:09.573Z,11.70
2023-05-17T06:48:37.612Z,14.38
2023-05-17T06:51:05.674Z,12.65
2023-05-17T06:53:35.091Z,13.63
2023-05-17T06:56:03.000Z,11.70
2023-05-17T06:58:30.932Z,14.68
2023-05-17T07:01:01.141Z,13.65
2023-05-17T07:03:29.264Z,12.77
2023-05-17T07:05:57.396Z,8.30
2023-05-17T07:08:25.301Z,11.07
2023-05-17T07:10:54.909Z,9.45
2023-05-17T07:13:22.853Z,11.57
2023-05-17T07:15:50.794Z,10.88
2023-05-17T07:18:18.750Z,12.65
2023-05-17T07:20:46.763Z,10.07
2023-05-17T07:23:14.707Z,14.57
2023-05-17T07:25:43.192Z,10.52
2023-05-17T07:28:12.503Z,10.15
2023-05-17T07:30:42.748Z,7.72
2023-05-17T07:33:10.929Z,9.60
2023-05-17T07:35:38.963Z,7.60
2023-05-17T07:38:06.914Z,8.07
2023-05-17T07:40:34.910Z,8.85
2023-05-17T07:43:02.810Z,9.73
2023-05-17T07:45:32.199Z,10.43
2023-05-17T07:48:00.329Z,8.07
2023-05-17T07:50:28.895Z,8.98
2023-05-17T07:52:58.890Z,8.20
2023-05-17T07:55:26.953Z,5.93
2023-05-17T07:57:55.001Z,6.65
2023-05-17T08:00:24.453Z,7.53
2023-05-17T08:02:53.797Z,7.63
2023-05-17T08:05:22.020Z,6.07
2023-05-17T08:07:49.909Z,6.80
2023-05-17T08:10:20.096Z,7.93
2023-05-17T08:12:48.017Z,7.25
2023-05-17T08:15:16.109Z,7.63
2023-05-17T08:17:44.174Z,5.93
2023-05-17T08:20:14.385Z,7.03
2023-05-17T08:22:42.734Z,7.07
2023-05-17T08:25:11.416Z,7.78
2023-05-17T08:27:39.931Z,6.18
2023-05-17T08:30:11.913Z,6.07
2023-05-17T08:32:42.768Z,7.75
2023-05-17T08:35:10.824Z,7.07
2023-05-17T08:37:40.163Z,6.20
2023-05-17T08:40:09.480Z,5.28
2023-05-17T08:42:37.920Z,4.10
2023-05-17T08:45:08.535Z,7.30
2023-05-17T08:47:37.919Z,7.72
2023-05-17T08:50:07.728Z,7.55
2023-05-17T08:52:37.475Z,6.40
2023-05-17T08:55:09.081Z,8.00
2023-05-17T08:57:37.750Z,8.43
2023-05-17T09:00:12.479Z,6.63
2023-05-17T09:02:40.638Z,5.68
2023-05-17T09:05:09.944Z,8.40
2023-05-17T09:07:37.945Z,4.43
2023-05-17T09:10:08.411Z,8.48
2023-05-17T09:12:36.746Z,5.80
2023-05-17T09:15:17.996Z,4.25
2023-05-17T09:17:52.768Z,4.55
2023-05-17T09:20:25.347Z,7.38
2023-05-17T09:22:53.478Z,5.15
2023-05-17T09:25:25.517Z,5.47
2023-05-17T09:27:54.216Z,6.93
2023-05-17T09:30:28.378Z,5.82
2023-05-17T09:32:57.711Z,5.65
2023-05-17T09:35:29.800Z,7.78
2023-05-17T09:37:59.318Z,5.72
2023-05-17T09:40:28.675Z,5.65
2023-05-17T09:42:56.579Z,8.27
2023-05-17T09:45:24.854Z,6.32
2023-05-17T09:47:53.629Z,11.32
2023-05-17T09:50:25.331Z,4.68
2023-05-17T09:52:54.064Z,5.18
2023-05-17T09:55:27.646Z,6.57
2023-05-17T09:58:03.976Z,6.47
2023-05-17T10:00:32.325Z,7.53
2023-05-17T10:03:00.503Z,5.05
2023-05-17T10:05:28.835Z,6.88
2023-05-17T10:07:57.579Z,4.22
2023-05-17T10:10:25.655Z,8.05
2023-05-17T10:12:54.315Z,3.80
2023-05-17T10:15:23.989Z,4.72
2023-05-17T10:17:54.634Z,4.82
2023-05-17T10:20:22.729Z,5.25
2023-05-17T10:22:51.217Z,6.20
2023-05-17T10:25:19.549Z,3.53
2023-05-17T10:27:49.789Z,4.10
2023-05-17T10:30:19.329Z,3.60
2023-05-17T10:32:50.209Z,6.30
2023-05-17T10:35:18.798Z,7.78
2023-05-17T10:37:46.727Z,5.43
2023-05-17T10:40:14.684Z,5.43
2023-05-17T10:42:44.200Z,5.72
2023-05-17T10:45:13.513Z,8.77
2023-05-17T10:47:42.718Z,4.95
2023-05-17T10:50:14.974Z,5.82
2023-05-17T10:52:48.252Z,6.53
2023-05-17T10:55:20.060Z,6.20
2023-05-17T10:58:09.302Z,5.03
2023-05-17T11:00:40.295Z,7.10
2023-05-17T11:03:16.706Z,5.72
2023-05-17T11:05:48.127Z,4.28
2023-05-17T11:08:17.865Z,7.35
2023-05-17T11:11:11.442Z,8.93
2023-05-17T11:13:53.741Z,7.47
2023-05-17T11:16:28.574Z,8.88
2023-05-17T11:18:58.399Z,8.27
2023-05-17T11:21:29.699Z,8.88
2023-05-17T11:24:03.826Z,6.95
2023-05-17T11:26:35.254Z,8.70
2023-05-17T11:29:04.366Z,2.85
2023-05-17T11:31:33.498Z,4.47
2023-05-17T11:34:01.687Z,5.05
2023-05-17T11:36:31.319Z,7.25
2023-05-17T11:39:14.641Z,5.70
2023-05-17T11:41:50.058Z,5.35
2023-05-17T11:44:19.333Z,4.45
2023-05-17T11:46:47.360Z,6.78
2023-05-17T11:49:27.007Z,7.35
2023-05-17T11:52:03.164Z,5.82
2023-05-17T11:54:32.219Z,4.68
2023-05-17T11:57:00.817Z,4.30
2023-05-17T11:59:28.801Z,6.85
2023-05-17T12:01:56.716Z,6.57
2023-05-17T12:04:25.746Z,5.00
2023-05-17T12:06:53.964Z,3.30
2023-05-17T12:09:24.242Z,7.28
2023-05-17T12:11:52.221Z,5.85
2023-05-17T12:14:20.385Z,4.15
2023-05-17T12:16:51.292Z,5.47
2023-05-17T12:19:20.125Z,8.18
2023-05-17T12:21:48.337Z,6.15
2023-05-17T12:24:16.592Z,7.50
2023-05-17T12:26:46.772Z,6.75
2023-05-17T12:29:15.982Z,5.97
2023-05-17T12:31:46.031Z,4.57
2023-05-17T12:34:14.336Z,4.50
2023-05-17T12:36:42.652Z,3.92
2023-05-17T12:39:11.335Z,8.57
2023-05-17T12:41:40.151Z,4.78
2023-05-17T12:46:40.929Z,5.97
2023-05-17T12:49:10.092Z,6.43
2023-05-17T12:51:43.111Z,7.30
2023-05-17T12:54:11.392Z,5.95
2023-05-17T12:56:39.394Z,2.63
2023-05-17T12:59:13.255Z,5.88
2023-05-17T13:01:43.698Z,4.47
2023-05-17T13:04:12.372Z,5.93
2023-05-17T13:06:47.784Z,8.00
2023-05-17T13:09:15.835Z,4.90
2023-05-17T13:11:44.104Z,6.05
2023-05-17T13:14:13.682Z,4.03
2023-05-17T13:16:42.805Z,5.20
2023-05-17T13:19:14.761Z,4.05
2023-05-17T13:21:43.008Z,5.00
2023-05-17T13:24:11.502Z,3.78
2023-05-17T13:26:39.460Z,5.63
2023-05-17T13:29:07.396Z,5.28
2023-05-17T13:31:36.703Z,4.75
2023-05-17T13:34:04.716Z,5.63
2023-05-17T13:36:32.667Z,6.15
2023-05-17T13:39:01.993Z,5.03
2023-05-17T13:41:29.994Z,4.78
2023-05-17T13:43:58.477Z,5.95
2023-05-17T13:46:26.499Z,6.28
2023-05-17T13:48:55.840Z,5.50
2023-05-17T13:51:25.450Z,6.82
2023-05-17T13:53:53.342Z,5.43
2023-05-17T13:56:22.290Z,5.70
2023-05-17T13:58:50.634Z,4.53
2023-05-17T14:01:18.902Z,5.18
2023-05-17T14:03:46.912Z,6.18
2023-05-17T14:06:16.335Z,4.18
2023-05-17T14:08:44.955Z,4.03
2023-05-17T14:11:12.895Z,5.47
2023-05-17T14:13:41.136Z,5.10
2023-05-17T14:16:09.247Z,4.82
2023-05-17T14:18:37.356Z,4.82
2023-05-17T14:21:08.297Z,8.55
2023-05-17T14:23:37.779Z,4.72
2023-05-17T14:26:07.514Z,8.30
2023-05-17T14:28:38.260Z,5.18
2023-05-17T14:31:07.513Z,4.45
2023-05-17T14:33:35.611Z,2.55
2023-05-17T14:36:04.299Z,5.13
2023-05-17T14:38:32.307Z,5.63
2023-05-17T14:41:02.280Z,10.38
2023-05-17T14:43:30.412Z,4.88
2023-05-17T14:45:58.357Z,5.15
2023-05-17T14:48:26.417Z,3.35
2023-05-17T14:50:54.393Z,6.25
2023-05-17T14:53:23.371Z,7.45
2023-05-17T14:55:51.352Z,5.22
2023-05-17T14:58:21.102Z,4.25
2023-05-17T15:00:54.161Z,5.25
2023-05-17T15:03:24.165Z,4.88
2023-05-17T15:05:55.537Z,2.83
2023-05-17T15:08:23.673Z,4.15
2023-05-17T15:10:51.780Z,4.13
2023-05-17T15:13:21.611Z,5.03
2023-05-17T15:15:49.552Z,3.92
2023-05-17T15:18:17.410Z,7.07
2023-05-17T15:20:45.533Z,4.18
2023-05-17T15:23:13.459Z,7.15
2023-05-17T15:25:42.406Z,2.90
2023-05-17T15:28:10.348Z,2.58
2023-05-17T15:30:41.332Z,5.07
2023-05-17T15:33:10.055Z,4.88
2023-05-17T15:35:41.471Z,5.93
2023-05-17T15:38:09.358Z,4.47
2023-05-17T15:40:37.646Z,3.40
2023-05-17T15:43:08.758Z,4.80
2023-05-17T15:45:36.664Z,3.63
2023-05-17T15:48:07.438Z,5.00
2023-05-17T15:50:35.584Z,3.97
2023-05-17T15:53:03.545Z,8.52
2023-05-17T15:55:31.734Z,3.83
2023-05-17T15:57:59.762Z,3.90
2023-05-17T16:00:27.780Z,4.95
2023-05-17T16:02:55.702Z,2.78
2023-05-17T16:05:25.142Z,6.30
2023-05-17T16:07:53.129Z,4.80
2023-05-17T16:10:21.143Z,6.00
2023-05-17T16:12:50.280Z,3.83
2023-05-17T16:15:18.374Z,3.53
2023-05-17T16:17:48.206Z,5.72
2023-05-17T16:20:16.359Z,5.22
2023-05-17T16:22:46.776Z,3.70
2023-05-17T16:25:16.780Z,6.13
2023-05-17T16:27:44.701Z,6.65
2023-05-17T16:30:13.464Z,6.20
2023-05-17T16:32:41.598Z,5.97
2023-05-17T16:35:10.190Z,4.40
2023-05-17T16:37:38.166Z,6.65
2023-05-17T16:40:09.048Z,7.40
2023-05-17T16:42:37.060Z,7.68
2023-05-17T16:45:07.136Z,3.35
2023-05-17T16:47:36.203Z,5.35
2023-05-17T16:50:05.365Z,3.25
2023-05-17T16:52:33.232Z,4.20
2023-05-17T16:55:03.502Z,6.50
2023-05-17T16:57:33.037Z,5.03
2023-05-17T17:00:01.967Z,7.35
2023-05-17T17:02:30.121Z,5.05
2023-05-17T17:05:01.118Z,4.20
2023-05-17T17:07:29.060Z,3.67
2023-05-17T17:09:56.967Z,4.43
2023-05-17T17:12:26.101Z,5.13
2023-05-17T17:14:55.813Z,4.18
2023-05-17T17:17:23.720Z,5.40
2023-05-17T17:19:52.260Z,5.57
2023-05-17T17:22:20.162Z,3.25
2023-05-17T17:24:48.177Z,5.13
2023-05-17T17:27:16.125Z,5.30
2023-05-17T17:29:44.024Z,4.25
2023-05-17T17:32:13.351Z,6.20
2023-05-17T17:34:41.375Z,2.97
2023-05-17T17:37:09.280Z,4.97
2023-05-17T17:39:37.283Z,4.50
2023-05-17T17:42:05.313Z,2.85
2023-05-17T17:44:33.278Z,3.50
2023-05-17T17:47:01.157Z,3.78
2023-05-17T17:49:30.974Z,7.03
2023-05-17T17:51:59.168Z,5.80
2023-05-17T17:54:27.051Z,6.63
2023-05-17T17:56:55.887Z,6.68
2023-05-17T17:59:23.820Z,6.82
2023-05-17T18:01:51.723Z,4.78
2023-05-17T18:04:19.804Z,5.72
2023-05-17T18:06:50.119Z,3.38
2023-05-17T18:09:20.677Z,4.10
2023-05-17T18:11:49.319Z,4.65
2023-05-17T18:14:17.637Z,8.25
2023-05-17T18:16:45.583Z,4.68
2023-05-17T18:19:13.607Z,5.70
2023-05-17T18:21:43.041Z,8.40
2023-05-17T18:24:12.498Z,4.93
2023-05-17T18:26:40.482Z,4.78
2023-05-17T18:29:08.486Z,4.20
2023-05-17T18:31:36.413Z,6.00
2023-05-17T18:34:04.370Z,6.03
2023-05-17T18:36:32.281Z,6.55
2023-05-17T18:39:00.935Z,7.63
2023-05-17T18:41:30.273Z,4.18
2023-05-17T18:44:01.869Z,7.35
2023-05-17T18:46:38.366Z,6.53
2023-05-17T18:49:06.449Z,5.07
2023-05-17T18:51:34.466Z,6.38
2023-05-17T18:54:02.453Z,11.43
2023-05-17T18:56:32.726Z,5.25
2023-05-17T18:59:01.162Z,6.90
2023-05-17T19:01:29.173Z,9.85
2023-05-17T19:03:57.227Z,6.43
2023-05-17T19:06:25.444Z,5.90
2023-05-17T19:08:53.437Z,7.13
2023-05-17T19:11:22.464Z,7.88
2023-05-17T19:13:51.880Z,8.00
2023-05-17T19:16:19.795Z,10.05
2023-05-17T19:18:47.828Z,7.35
2023-05-17T19:21:15.806Z,5.28
2023-05-17T19:23:43.743Z,5.53
2023-05-17T19:26:11.750Z,7.78
2023-05-17T19:28:40.019Z,5.00
2023-05-17T19:31:09.481Z,9.48
2023-05-17T19:33:37.799Z,6.72
2023-05-17T19:36:05.931Z,12.18
2023-05-17T19:38:34.072Z,8.20
2023-05-17T19:41:02.351Z,8.57
2023-05-17T19:43:30.311Z,8.30
2023-05-17T19:45:58.310Z,6.55
2023-05-17T19:48:27.817Z,7.85
2023-05-17T19:50:56.964Z,10.13
2023-05-17T19:53:25.202Z,7.25
2023-05-17T19:55:53.415Z,11.27
2023-05-17T19:58:21.352Z,9.65
2023-05-17T20:00:49.579Z,9.20
2023-05-17T20:03:17.570Z,5.80
2023-05-17T20:05:46.934Z,8.82
2023-05-17T20:08:15.474Z,9.52
2023-05-17T20:10:43.526Z,7.80
2023-05-17T20:13:11.439Z,8.70
2023-05-17T20:15:39.375Z,6.07
2023-05-17T20:18:09.143Z,7.68
2023-05-17T20:20:37.196Z,5.82
2023-05-17T20:23:08.629Z,8.45
2023-05-17T20:25:37.965Z,6.53
2023-05-17T20:28:06.025Z,7.40
2023-05-17T20:30:33.909Z,9.20
2023-05-17T20:33:01.956Z,8.75
2023-05-17T20:35:29.861Z,9.05
2023-05-17T20:37:57.806Z,8.48
2023-05-17T20:40:27.362Z,9.15
2023-05-17T20:42:55.425Z,7.90
2023-05-17T20:45:23.525Z,8.05
2023-05-17T20:47:52.298Z,9.95
2023-05-17T20:50:21.584Z,8.60
2023-05-17T20:52:49.979Z,5.70
2023-05-17T20:55:17.897Z,6.93
2023-05-17T20:57:47.920Z,10.20
2023-05-17T21:00:18.050Z,10.63
2023-05-17T21:02:46.119Z,12.60
2023-05-17T21:05:14.137Z,7.43
2023-05-17T21:07:42.212Z,7.25
2023-05-17T21:10:10.810Z,5.47
2023-05-17T21:12:38.701Z,7.75
2023-05-17T21:15:17.057Z,12.77
2023-05-17T21:17:45.576Z,8.85
2023-05-17T21:20:14.090Z,10.40
2023-05-17T21:22:42.122Z,10.93
2023-05-17T21:25:10.898Z,9.38
2023-05-17T21:27:38.884Z,9.48
2023-05-17T21:30:09.611Z,11.07
2023-05-17T21:32:37.681Z,8.05
2023-05-17T21:35:06.357Z,10.25
2023-05-17T21:37:34.379Z,7.63
2023-05-17T21:40:02.888Z,9.57
2023-05-17T21:42:30.806Z,9.75
2023-05-17T21:44:58.691Z,8.57
2023-05-17T21:47:27.995Z,9.20
2023-05-17T21:49:55.986Z,8.45
2023-05-17T21:52:23.944Z,11.57
2023-05-17T21:54:57.007Z,8.48
2023-05-17T21:57:25.005Z,8.38
2023-05-17T21:59:52.917Z,8.10
2023-05-17T22:02:21.117Z,9.43
2023-05-17T22:04:50.557Z,12.15
2023-05-17T22:07:18.558Z,8.35
2023-05-17T22:09:46.674Z,8.45
2023-05-17T22:12:14.767Z,5.93
2023-05-17T22:14:44.569Z,10.98
2023-05-17T22:17:12.502Z,8.38
2023-05-17T22:19:41.833Z,9.48
2023-05-17T22:22:11.081Z,9.20
2023-05-17T22:24:39.056Z,15.98
2023-05-17T22:27:07.228Z,8.65
2023-05-17T22:29:35.167Z,12.68
2023-05-17T22:32:03.262Z,8.70
2023-05-17T22:34:31.929Z,12.85
2023-05-17T22:36:59.989Z,10.10
2023-05-17T22:39:29.190Z,12.40
2023-05-17T22:41:57.386Z,6.72
2023-05-17T22:44:26.305Z,7.25
2023-05-17T22:46:57.769Z,15.10
2023-05-17T22:49:26.006Z,7.43
2023-05-17T22:51:54.609Z,13.43
2023-05-17T22:54:23.104Z,14.07
2023-05-17T22:56:52.375Z,13.80
2023-05-17T22:59:20.562Z,12.98
2023-05-17T23:01:48.571Z,10.73
2023-05-17T23:04:16.676Z,14.25
2023-05-17T23:06:44.654Z,9.52
2023-05-17T23:09:13.280Z,12.95
2023-05-17T23:11:41.306Z,9.77
2023-05-17T23:14:11.339Z,8.07
2023-05-17T23:16:39.352Z,7.10
2023-05-17T23:19:07.425Z,9.32
2023-05-17T23:21:35.732Z,8.07
2023-05-17T23:24:03.620Z,8.13
2023-05-17T23:26:31.486Z,10.85
2023-05-17T23:28:59.326Z,11.10
2023-05-17T23:31:29.975Z,9.63
2023-05-17T23:33:57.924Z,11.07
2023-05-17T23:36:25.822Z,10.90
2023-05-17T23:38:53.728Z,8.40
2023-05-17T23:41:23.907Z,11.32
2023-05-17T23:43:52.056Z,9.93
2023-05-17T23:46:21.991Z,10.25
2023-05-17T23:48:51.282Z,14.52
2023-05-17T23:51:20.003Z,8.98
2023-05-17T23:53:48.972Z,9.23
2023-05-17T23:56:17.907Z,9.15
2023-05-17T23:58:46.345Z,8.13
